sensor_id;sensor_type;location;lat;lon;timestamp;P1;durP1;ratioP1;P2;durP2;ratioP2
15498;SDS011;7851;52.260;6.030;2023-05-16T00:03:14;14;;;3.5;;
15498;SDS011;7851;52.260;6.030;2023-05-16T00:03:14;9.9;;;3.2;;
15498;SDS011;7851;52.260;6.030;2023-05-16T00:03:14;10.8;;;3.4;;
15498;SDS011;7851;52.260;6.030;2023-05-16T00:03:23;10.7;;;3.4;;
15498;SDS011;7851;52.260;6.030;2023-05-16T00:04:24;7;;;3.2;;
15498;SDS011;7851;52.260;6.030;2023-05-16T00:05:23;11.2;;;3.3;;
15498;SDS011;7851;52.260;6.030;2023-05-16T00:06:23;11;;;3.4;;
15498;SDS011;7851;52.260;6.030;2023-05-16T00:07:24;14.6;;;3.4;;
15498;SDS011;7851;52.260;6.030;2023-05-16T00:08:23;12.5;;;3.5;;
15498;SDS011;7851;52.260;6.030;2023-05-16T00:09:23;11.9;;;3.1;;
15498;SDS011;7851;52.260;6.030;2023-05-16T00:10:23;20.8;;;4.1;;
15498;SDS011;7851;52.260;6.030;2023-05-16T00:11:23;10.7;;;3.4;;
15498;SDS011;7851;52.260;6.030;2023-05-16T00:12:24;11.5;;;3.3;;
15498;SDS011;7851;52.260;6.030;2023-05-16T00:13:23;9.5;;;3.5;;
15498;SDS011;7851;52.260;6.030;2023-05-16T00:14:23;8.1;;;3.3;;
15498;SDS011;7851;52.260;6.030;2023-05-16T00:15:23;11.8;;;3.4;;
15498;SDS011;7851;52.260;6.030;2023-05-16T00:16:23;11.5;;;3;;
15498;SDS011;7851;52.260;6.030;2023-05-16T00:17:23;11.9;;;3.6;;
15498;SDS011;7851;52.260;6.030;2023-05-16T00:18:23;8.3;;;3.5;;
15498;SDS011;7851;52.260;6.030;2023-05-16T00:19:23;10.4;;;3.4;;
15498;SDS011;7851;52.260;6.030;2023-05-16T00:20:24;11.8;;;3.2;;
15498;SDS011;7851;52.260;6.030;2023-05-16T00:21:23;6.3;;;3;;
15498;SDS011;7851;52.260;6.030;2023-05-16T00:22:23;10.2;;;3.3;;
15498;SDS011;7851;52.260;6.030;2023-05-16T00:23:23;9.6;;;3.2;;
15498;SDS011;7851;52.260;6.030;2023-05-16T00:24:23;15.6;;;3.3;;
15498;SDS011;7851;52.260;6.030;2023-05-16T00:25:24;10.6;;;3.3;;
15498;SDS011;7851;52.260;6.030;2023-05-16T00:26:24;13.2;;;3;;
15498;SDS011;7851;52.260;6.030;2023-05-16T00:27:23;7.6;;;2.9;;
15498;SDS011;7851;52.260;6.030;2023-05-16T00:28:23;7.9;;;3.3;;
15498;SDS011;7851;52.260;6.030;2023-05-16T00:29:23;11.5;;;3.4;;
15498;SDS011;7851;52.260;6.030;2023-05-16T00:30:23;7.4;;;3;;
15498;SDS011;7851;52.260;6.030;2023-05-16T00:31:23;9.7;;;3;;
15498;SDS011;7851;52.260;6.030;2023-05-16T00:32:23;9.5;;;2.9;;
15498;SDS011;7851;52.260;6.030;2023-05-16T00:33:23;13.7;;;2.9;;
15498;SDS011;7851;52.260;6.030;2023-05-16T00:34:23;11.9;;;3.1;;
15498;SDS011;7851;52.260;6.030;2023-05-16T00:35:23;14.3;;;3.5;;
15498;SDS011;7851;52.260;6.030;2023-05-16T00:36:23;10.5;;;3.2;;
15498;SDS011;7851;52.260;6.030;2023-05-16T00:37:23;12.1;;;3.2;;
15498;SDS011;7851;52.260;6.030;2023-05-16T00:38:23;7.8;;;3;;
15498;SDS011;7851;52.260;6.030;2023-05-16T00:39:23;9.1;;;2.7;;
15498;SDS011;7851;52.260;6.030;2023-05-16T00:40:23;8.9;;;3.1;;
15498;SDS011;7851;52.260;6.030;2023-05-16T00:41:23;10.5;;;2.9;;
15498;SDS011;7851;52.260;6.030;2023-05-16T00:42:23;13.8;;;3.5;;
15498;SDS011;7851;52.260;6.030;2023-05-16T00:43:23;11.3;;;3.1;;
15498;SDS011;7851;52.260;6.030;2023-05-16T00:44:23;8.5;;;3.2;;
15498;SDS011;7851;52.260;6.030;2023-05-16T00:45:23;9.1;;;3;;
15498;SDS011;7851;52.260;6.030;2023-05-16T00:46:23;10.1;;;2.8;;
15498;SDS011;7851;52.260;6.030;2023-05-16T00:47:24;10.7;;;3.4;;
15498;SDS011;7851;52.260;6.030;2023-05-16T00:48:23;10.4;;;3.3;;
15498;SDS011;7851;52.260;6.030;2023-05-16T00:49:23;8.1;;;3.2;;
15498;SDS011;7851;52.260;6.030;2023-05-16T00:50:23;10.5;;;3.3;;
15498;SDS011;7851;52.260;6.030;2023-05-16T00:51:23;8.6;;;2.8;;
15498;SDS011;7851;52.260;6.030;2023-05-16T00:52:23;7.8;;;3.2;;
15498;SDS011;7851;52.260;6.030;2023-05-16T00:53:23;10.8;;;3.1;;
15498;SDS011;7851;52.260;6.030;2023-05-16T00:54:23;12.4;;;3.4;;
15498;SDS011;7851;52.260;6.030;2023-05-16T00:55:23;7.5;;;2.5;;
15498;SDS011;7851;52.260;6.030;2023-05-16T00:56:23;8.8;;;2.9;;
15498;SDS011;7851;52.260;6.030;2023-05-16T00:57:23;10.5;;;2.9;;
15498;SDS011;7851;52.260;6.030;2023-05-16T00:58:23;7.7;;;2.9;;
15498;SDS011;7851;52.260;6.030;2023-05-16T00:59:23;7.1;;;3.1;;
15498;SDS011;7851;52.260;6.030;2023-05-16T01:00:24;11.5;;;3.3;;
15498;SDS011;7851;52.260;6.030;2023-05-16T01:01:24;12.3;;;3.1;;
15498;SDS011;7851;52.260;6.030;2023-05-16T01:02:23;7.8;;;2.9;;
15498;SDS011;7851;52.260;6.030;2023-05-16T01:03:23;7.8;;;2.8;;
15498;SDS011;7851;52.260;6.030;2023-05-16T01:04:23;9.7;;;3;;
15498;SDS011;7851;52.260;6.030;2023-05-16T01:05:23;6.1;;;2.8;;
15498;SDS011;7851;52.260;6.030;2023-05-16T01:06:23;8.2;;;2.9;;
15498;SDS011;7851;52.260;6.030;2023-05-16T01:07:23;9.6;;;2.8;;
15498;SDS011;7851;52.260;6.030;2023-05-16T01:08:23;10.7;;;3.3;;
15498;SDS011;7851;52.260;6.030;2023-05-16T01:09:23;9.8;;;3.2;;
15498;SDS011;7851;52.260;6.030;2023-05-16T01:10:24;8.7;;;3.3;;
15498;SDS011;7851;52.260;6.030;2023-05-16T01:11:26;10.3;;;2.8;;
15498;SDS011;7851;52.260;6.030;2023-05-16T01:12:27;11.2;;;3.2;;
15498;SDS011;7851;52.260;6.030;2023-05-16T01:13:26;6.2;;;2.7;;
15498;SDS011;7851;52.260;6.030;2023-05-16T01:14:24;12;;;3.4;;
15498;SDS011;7851;52.260;6.030;2023-05-16T01:15:25;9.1;;;3.1;;
15498;SDS011;7851;52.260;6.030;2023-05-16T01:16:25;9.5;;;2.5;;
15498;SDS011;7851;52.260;6.030;2023-05-16T01:17:25;12.8;;;3.1;;
15498;SDS011;7851;52.260;6.030;2023-05-16T01:18:24;6.6;;;2.9;;
15498;SDS011;7851;52.260;6.030;2023-05-16T01:19:27;7.6;;;3;;
15498;SDS011;7851;52.260;6.030;2023-05-16T01:20:27;8.3;;;3;;
15498;SDS011;7851;52.260;6.030;2023-05-16T01:21:28;7.5;;;3;;
15498;SDS011;7851;52.260;6.030;2023-05-16T01:22:28;10.1;;;2.7;;
15498;SDS011;7851;52.260;6.030;2023-05-16T01:23:26;8;;;3.1;;
15498;SDS011;7851;52.260;6.030;2023-05-16T01:24:26;6.7;;;2.9;;
15498;SDS011;7851;52.260;6.030;2023-05-16T01:25:28;8.6;;;3;;
15498;SDS011;7851;52.260;6.030;2023-05-16T01:26:24;10.8;;;2.7;;
15498;SDS011;7851;52.260;6.030;2023-05-16T01:27:23;19.1;;;3.4;;
15498;SDS011;7851;52.260;6.030;2023-05-16T01:28:23;10.8;;;3.2;;
15498;SDS011;7851;52.260;6.030;2023-05-16T01:29:23;7.9;;;2.9;;
15498;SDS011;7851;52.260;6.030;2023-05-16T01:30:23;13.8;;;2.9;;
15498;SDS011;7851;52.260;6.030;2023-05-16T01:31:23;8.1;;;3.2;;
15498;SDS011;7851;52.260;6.030;2023-05-16T01:32:23;11.3;;;3.2;;
15498;SDS011;7851;52.260;6.030;2023-05-16T01:33:23;7.9;;;2.8;;
15498;SDS011;7851;52.260;6.030;2023-05-16T01:34:23;9.5;;;3;;
15498;SDS011;7851;52.260;6.030;2023-05-16T01:35:23;8.2;;;2.7;;
15498;SDS011;7851;52.260;6.030;2023-05-16T01:36:24;11.1;;;2.9;;
15498;SDS011;7851;52.260;6.030;2023-05-16T01:37:26;5.4;;;2.5;;
15498;SDS011;7851;52.260;6.030;2023-05-16T01:38:24;10.8;;;3.2;;
15498;SDS011;7851;52.260;6.030;2023-05-16T01:39:26;7.8;;;2.9;;
15498;SDS011;7851;52.260;6.030;2023-05-16T01:40:26;11.5;;;2.7;;
15498;SDS011;7851;52.260;6.030;2023-05-16T01:41:24;10.1;;;2.9;;
15498;SDS011;7851;52.260;6.030;2023-05-16T01:42:25;10.1;;;3;;
15498;SDS011;7851;52.260;6.030;2023-05-16T01:43:24;7.3;;;2.8;;
15498;SDS011;7851;52.260;6.030;2023-05-16T01:44:30;9.3;;;3;;
15498;SDS011;7851;52.260;6.030;2023-05-16T01:45:25;9.6;;;2.8;;
15498;SDS011;7851;52.260;6.030;2023-05-16T01:46:25;7.5;;;2.8;;
15498;SDS011;7851;52.260;6.030;2023-05-16T01:47:23;7.9;;;2.8;;
15498;SDS011;7851;52.260;6.030;2023-05-16T01:48:25;5.9;;;2.9;;
15498;SDS011;7851;52.260;6.030;2023-05-16T01:49:24;10.4;;;2.9;;
15498;SDS011;7851;52.260;6.030;2023-05-16T01:50:24;7.9;;;2.9;;
15498;SDS011;7851;52.260;6.030;2023-05-16T01:51:25;7.3;;;2.7;;
15498;SDS011;7851;52.260;6.030;2023-05-16T01:52:26;7.9;;;2.8;;
15498;SDS011;7851;52.260;6.030;2023-05-16T01:53:24;6.5;;;2.6;;
15498;SDS011;7851;52.260;6.030;2023-05-16T01:54:24;8.8;;;2.9;;
15498;SDS011;7851;52.260;6.030;2023-05-16T01:55:28;8.8;;;2.7;;
15498;SDS011;7851;52.260;6.030;2023-05-16T01:56:23;7.6;;;2.7;;
15498;SDS011;7851;52.260;6.030;2023-05-16T01:57:25;6;;;2.5;;
15498;SDS011;7851;52.260;6.030;2023-05-16T01:58:24;10.3;;;2.8;;
15498;SDS011;7851;52.260;6.030;2023-05-16T01:59:23;8;;;2.8;;
15498;SDS011;7851;52.260;6.030;2023-05-16T02:00:23;4.7;;;2.5;;
15498;SDS011;7851;52.260;6.030;2023-05-16T02:01:23;12.1;;;3.1;;
15498;SDS011;7851;52.260;6.030;2023-05-16T02:02:23;10.1;;;3;;
15498;SDS011;7851;52.260;6.030;2023-05-16T02:03:23;8.6;;;2.5;;
15498;SDS011;7851;52.260;6.030;2023-05-16T02:04:23;10;;;2.8;;
15498;SDS011;7851;52.260;6.030;2023-05-16T02:05:23;15.2;;;3.1;;
15498;SDS011;7851;52.260;6.030;2023-05-16T02:06:23;5.7;;;2.7;;
15498;SDS011;7851;52.260;6.030;2023-05-16T02:07:23;8.8;;;2.8;;
15498;SDS011;7851;52.260;6.030;2023-05-16T02:08:24;9.5;;;2.8;;
15498;SDS011;7851;52.260;6.030;2023-05-16T02:09:23;7.1;;;2.9;;
15498;SDS011;7851;52.260;6.030;2023-05-16T02:10:23;7.7;;;2.7;;
15498;SDS011;7851;52.260;6.030;2023-05-16T02:11:23;7.6;;;2.7;;
15498;SDS011;7851;52.260;6.030;2023-05-16T02:12:24;13.2;;;3;;
15498;SDS011;7851;52.260;6.030;2023-05-16T02:13:23;7;;;2.4;;
15498;SDS011;7851;52.260;6.030;2023-05-16T02:14:23;9.4;;;2.5;;
15498;SDS011;7851;52.260;6.030;2023-05-16T02:15:23;7.3;;;2.7;;
15498;SDS011;7851;52.260;6.030;2023-05-16T02:16:23;13.2;;;2.8;;
15498;SDS011;7851;52.260;6.030;2023-05-16T02:17:23;8.7;;;2.5;;
15498;SDS011;7851;52.260;6.030;2023-05-16T02:18:23;7.5;;;2.5;;
15498;SDS011;7851;52.260;6.030;2023-05-16T02:19:23;5.8;;;2.7;;
15498;SDS011;7851;52.260;6.030;2023-05-16T02:20:23;11.1;;;2.9;;
15498;SDS011;7851;52.260;6.030;2023-05-16T02:21:23;8.2;;;2.8;;
15498;SDS011;7851;52.260;6.030;2023-05-16T02:22:23;9.2;;;3;;
15498;SDS011;7851;52.260;6.030;2023-05-16T02:23:23;10.3;;;2.6;;
15498;SDS011;7851;52.260;6.030;2023-05-16T02:24:23;9.3;;;2.6;;
15498;SDS011;7851;52.260;6.030;2023-05-16T02:25:23;10;;;3;;
15498;SDS011;7851;52.260;6.030;2023-05-16T02:26:23;6.4;;;2.7;;
15498;SDS011;7851;52.260;6.030;2023-05-16T02:27:23;5.7;;;2.4;;
15498;SDS011;7851;52.260;6.030;2023-05-16T02:28:23;12.9;;;2.6;;
15498;SDS011;7851;52.260;6.030;2023-05-16T02:29:23;7.2;;;2.6;;
15498;SDS011;7851;52.260;6.030;2023-05-16T02:30:23;11.8;;;2.6;;
15498;SDS011;7851;52.260;6.030;2023-05-16T02:31:25;6.9;;;2.6;;
15498;SDS011;7851;52.260;6.030;2023-05-16T02:32:23;6.2;;;2.8;;
15498;SDS011;7851;52.260;6.030;2023-05-16T02:33:24;9.7;;;2.8;;
15498;SDS011;7851;52.260;6.030;2023-05-16T02:34:23;8;;;2.9;;
15498;SDS011;7851;52.260;6.030;2023-05-16T02:35:23;8.6;;;2.7;;
15498;SDS011;7851;52.260;6.030;2023-05-16T02:36:23;7.4;;;2.4;;
15498;SDS011;7851;52.260;6.030;2023-05-16T02:37:23;10.9;;;2.7;;
15498;SDS011;7851;52.260;6.030;2023-05-16T02:38:23;11.1;;;3;;
15498;SDS011;7851;52.260;6.030;2023-05-16T02:39:23;7.6;;;2.8;;
15498;SDS011;7851;52.260;6.030;2023-05-16T02:40:23;7.6;;;2.8;;
15498;SDS011;7851;52.260;6.030;2023-05-16T02:41:23;4.8;;;2.2;;
15498;SDS011;7851;52.260;6.030;2023-05-16T02:42:24;8.7;;;2.6;;
15498;SDS011;7851;52.260;6.030;2023-05-16T02:43:23;6.5;;;2.5;;
15498;SDS011;7851;52.260;6.030;2023-05-16T02:44:23;11.7;;;2.8;;
15498;SDS011;7851;52.260;6.030;2023-05-16T02:45:23;7.3;;;2.7;;
15498;SDS011;7851;52.260;6.030;2023-05-16T02:46:24;7.6;;;2.7;;
15498;SDS011;7851;52.260;6.030;2023-05-16T02:47:23;5.4;;;2.4;;
15498;SDS011;7851;52.260;6.030;2023-05-16T02:48:23;9.4;;;2.7;;
15498;SDS011;7851;52.260;6.030;2023-05-16T02:49:23;13.5;;;3.1;;
15498;SDS011;7851;52.260;6.030;2023-05-16T02:50:23;5.4;;;2.5;;
15498;SDS011;7851;52.260;6.030;2023-05-16T02:51:24;6.6;;;2.5;;
15498;SDS011;7851;52.260;6.030;2023-05-16T02:52:23;7.9;;;2.6;;
15498;SDS011;7851;52.260;6.030;2023-05-16T02:53:23;9.3;;;2.5;;
15498;SDS011;7851;52.260;6.030;2023-05-16T02:54:23;9;;;2.6;;
15498;SDS011;7851;52.260;6.030;2023-05-16T02:55:23;6;;;2.3;;
15498;SDS011;7851;52.260;6.030;2023-05-16T02:56:23;9.3;;;2.4;;
15498;SDS011;7851;52.260;6.030;2023-05-16T02:57:23;10;;;2.7;;
15498;SDS011;7851;52.260;6.030;2023-05-16T02:58:23;9.1;;;2.6;;
15498;SDS011;7851;52.260;6.030;2023-05-16T02:59:23;6.2;;;2.4;;
15498;SDS011;7851;52.260;6.030;2023-05-16T03:00:23;8.4;;;3.2;;
15498;SDS011;7851;52.260;6.030;2023-05-16T03:01:23;6.4;;;2.4;;
15498;SDS011;7851;52.260;6.030;2023-05-16T03:02:23;10.1;;;2.5;;
15498;SDS011;7851;52.260;6.030;2023-05-16T03:03:23;8.1;;;2.8;;
15498;SDS011;7851;52.260;6.030;2023-05-16T03:04:23;7;;;2.9;;
15498;SDS011;7851;52.260;6.030;2023-05-16T03:05:23;9.6;;;2.5;;
15498;SDS011;7851;52.260;6.030;2023-05-16T03:06:23;6.9;;;2.3;;
15498;SDS011;7851;52.260;6.030;2023-05-16T03:07:23;8.1;;;3;;
15498;SDS011;7851;52.260;6.030;2023-05-16T03:08:23;9.2;;;2.8;;
15498;SDS011;7851;52.260;6.030;2023-05-16T03:09:23;9.2;;;2.8;;
15498;SDS011;7851;52.260;6.030;2023-05-16T03:10:23;7.9;;;2.8;;
15498;SDS011;7851;52.260;6.030;2023-05-16T03:11:23;5.5;;;2.5;;
15498;SDS011;7851;52.260;6.030;2023-05-16T03:12:23;6.6;;;2.7;;
15498;SDS011;7851;52.260;6.030;2023-05-16T03:13:23;5.4;;;2.4;;
15498;SDS011;7851;52.260;6.030;2023-05-16T03:14:23;8.5;;;2.8;;
15498;SDS011;7851;52.260;6.030;2023-05-16T03:15:23;8.9;;;2.3;;
15498;SDS011;7851;52.260;6.030;2023-05-16T03:16:23;4.4;;;2.2;;
15498;SDS011;7851;52.260;6.030;2023-05-16T03:17:23;6.1;;;2.2;;
15498;SDS011;7851;52.260;6.030;2023-05-16T03:18:23;8.8;;;2.7;;
15498;SDS011;7851;52.260;6.030;2023-05-16T03:19:23;7.9;;;2.7;;
15498;SDS011;7851;52.260;6.030;2023-05-16T03:20:23;5;;;2.6;;
15498;SDS011;7851;52.260;6.030;2023-05-16T03:21:23;9.5;;;2.7;;
15498;SDS011;7851;52.260;6.030;2023-05-16T03:22:23;7.3;;;2.5;;
15498;SDS011;7851;52.260;6.030;2023-05-16T03:23:24;5.6;;;2.5;;
15498;SDS011;7851;52.260;6.030;2023-05-16T03:24:23;10.3;;;3.1;;
15498;SDS011;7851;52.260;6.030;2023-05-16T03:25:23;6.5;;;2.5;;
15498;SDS011;7851;52.260;6.030;2023-05-16T03:26:23;9.1;;;2.6;;
15498;SDS011;7851;52.260;6.030;2023-05-16T03:27:23;8.5;;;2.4;;
15498;SDS011;7851;52.260;6.030;2023-05-16T03:28:23;6.8;;;2.3;;
15498;SDS011;7851;52.260;6.030;2023-05-16T03:29:23;5.5;;;2;;
15498;SDS011;7851;52.260;6.030;2023-05-16T03:30:23;9.9;;;2.2;;
15498;SDS011;7851;52.260;6.030;2023-05-16T03:31:23;5.8;;;2.4;;
15498;SDS011;7851;52.260;6.030;2023-05-16T03:32:23;8.7;;;2.4;;
15498;SDS011;7851;52.260;6.030;2023-05-16T03:33:23;7.3;;;2.1;;
15498;SDS011;7851;52.260;6.030;2023-05-16T03:34:23;4.3;;;2.4;;
15498;SDS011;7851;52.260;6.030;2023-05-16T03:35:23;6.9;;;2.6;;
15498;SDS011;7851;52.260;6.030;2023-05-16T03:36:23;6.1;;;2.5;;
15498;SDS011;7851;52.260;6.030;2023-05-16T03:37:23;9.1;;;2.5;;
15498;SDS011;7851;52.260;6.030;2023-05-16T03:38:23;6.8;;;2.7;;
15498;SDS011;7851;52.260;6.030;2023-05-16T03:39:23;5.4;;;2.5;;
15498;SDS011;7851;52.260;6.030;2023-05-16T03:40:23;5.1;;;2.3;;
15498;SDS011;7851;52.260;6.030;2023-05-16T03:41:23;4.5;;;2.6;;
15498;SDS011;7851;52.260;6.030;2023-05-16T03:42:23;4.4;;;2.3;;
15498;SDS011;7851;52.260;6.030;2023-05-16T03:43:23;7.3;;;2.8;;
15498;SDS011;7851;52.260;6.030;2023-05-16T03:44:23;4.8;;;2.5;;
15498;SDS011;7851;52.260;6.030;2023-05-16T03:45:23;6.6;;;2.4;;
15498;SDS011;7851;52.260;6.030;2023-05-16T03:46:23;8;;;2.6;;
15498;SDS011;7851;52.260;6.030;2023-05-16T03:47:23;6;;;2.3;;
15498;SDS011;7851;52.260;6.030;2023-05-16T03:48:23;7.4;;;2.6;;
15498;SDS011;7851;52.260;6.030;2023-05-16T03:49:25;5.8;;;2.3;;
15498;SDS011;7851;52.260;6.030;2023-05-16T03:50:23;7.4;;;2.5;;
15498;SDS011;7851;52.260;6.030;2023-05-16T03:51:23;7.9;;;2.7;;
15498;SDS011;7851;52.260;6.030;2023-05-16T03:52:23;4.9;;;2.2;;
15498;SDS011;7851;52.260;6.030;2023-05-16T03:53:23;5.9;;;2;;
15498;SDS011;7851;52.260;6.030;2023-05-16T03:54:23;4.5;;;2.2;;
15498;SDS011;7851;52.260;6.030;2023-05-16T03:55:23;6.8;;;2;;
15498;SDS011;7851;52.260;6.030;2023-05-16T03:56:23;6.3;;;2.5;;
15498;SDS011;7851;52.260;6.030;2023-05-16T03:57:23;8.8;;;2.4;;
15498;SDS011;7851;52.260;6.030;2023-05-16T03:58:23;13.8;;;2.7;;
15498;SDS011;7851;52.260;6.030;2023-05-16T03:59:23;5.3;;;2.3;;
15498;SDS011;7851;52.260;6.030;2023-05-16T04:00:24;4.2;;;2.1;;
15498;SDS011;7851;52.260;6.030;2023-05-16T04:01:23;6.3;;;2.4;;
15498;SDS011;7851;52.260;6.030;2023-05-16T04:02:23;4.9;;;2.5;;
15498;SDS011;7851;52.260;6.030;2023-05-16T04:03:23;6.4;;;2.2;;
15498;SDS011;7851;52.260;6.030;2023-05-16T04:04:23;5;;;2.2;;
15498;SDS011;7851;52.260;6.030;2023-05-16T04:05:23;4.2;;;2.1;;
15498;SDS011;7851;52.260;6.030;2023-05-16T04:06:23;4.6;;;2.1;;
15498;SDS011;7851;52.260;6.030;2023-05-16T04:07:23;5.5;;;2.4;;
15498;SDS011;7851;52.260;6.030;2023-05-16T04:08:23;7.1;;;2.6;;
15498;SDS011;7851;52.260;6.030;2023-05-16T04:09:23;7.3;;;2.6;;
15498;SDS011;7851;52.260;6.030;2023-05-16T04:10:23;6.9;;;2.6;;
15498;SDS011;7851;52.260;6.030;2023-05-16T04:11:24;7.9;;;2.4;;
15498;SDS011;7851;52.260;6.030;2023-05-16T04:12:23;5.8;;;2.2;;
15498;SDS011;7851;52.260;6.030;2023-05-16T04:13:23;4.6;;;2.1;;
15498;SDS011;7851;52.260;6.030;2023-05-16T04:14:23;6.5;;;2.4;;
15498;SDS011;7851;52.260;6.030;2023-05-16T04:15:23;5.9;;;2.2;;
15498;SDS011;7851;52.260;6.030;2023-05-16T04:16:23;5.8;;;2.3;;
15498;SDS011;7851;52.260;6.030;2023-05-16T04:17:23;3.5;;;2.1;;
15498;SDS011;7851;52.260;6.030;2023-05-16T04:18:23;7.9;;;2.3;;
15498;SDS011;7851;52.260;6.030;2023-05-16T04:19:23;4.3;;;2.1;;
15498;SDS011;7851;52.260;6.030;2023-05-16T04:20:23;11.3;;;2.4;;
15498;SDS011;7851;52.260;6.030;2023-05-16T04:21:23;3.4;;;2.1;;
15498;SDS011;7851;52.260;6.030;2023-05-16T04:22:23;6.9;;;2.2;;
15498;SDS011;7851;52.260;6.030;2023-05-16T04:23:23;5.1;;;2.2;;
15498;SDS011;7851;52.260;6.030;2023-05-16T04:24:23;7.1;;;2.4;;
15498;SDS011;7851;52.260;6.030;2023-05-16T04:25:23;11.3;;;2.6;;
15498;SDS011;7851;52.260;6.030;2023-05-16T04:26:23;8.5;;;2.5;;
15498;SDS011;7851;52.260;6.030;2023-05-16T04:27:23;7.5;;;2.3;;
15498;SDS011;7851;52.260;6.030;2023-05-16T04:28:23;6.4;;;2.3;;
15498;SDS011;7851;52.260;6.030;2023-05-16T04:29:23;10.6;;;2.3;;
15498;SDS011;7851;52.260;6.030;2023-05-16T04:30:23;4.2;;;2;;
15498;SDS011;7851;52.260;6.030;2023-05-16T04:31:23;8.2;;;2.5;;
15498;SDS011;7851;52.260;6.030;2023-05-16T04:32:23;4.8;;;2.3;;
15498;SDS011;7851;52.260;6.030;2023-05-16T04:33:23;4.8;;;2.3;;
15498;SDS011;7851;52.260;6.030;2023-05-16T04:34:23;3.4;;;2.1;;
15498;SDS011;7851;52.260;6.030;2023-05-16T04:35:23;6.9;;;2.5;;
15498;SDS011;7851;52.260;6.030;2023-05-16T04:36:23;8.1;;;2.6;;
15498;SDS011;7851;52.260;6.030;2023-05-16T04:37:23;6;;;2.4;;
15498;SDS011;7851;52.260;6.030;2023-05-16T04:38:23;8.4;;;2.5;;
15498;SDS011;7851;52.260;6.030;2023-05-16T04:39:23;4.4;;;2.4;;
15498;SDS011;7851;52.260;6.030;2023-05-16T04:40:23;9;;;2.6;;
15498;SDS011;7851;52.260;6.030;2023-05-16T04:41:23;7.7;;;2.7;;
15498;SDS011;7851;52.260;6.030;2023-05-16T04:42:23;5.5;;;2.6;;
15498;SDS011;7851;52.260;6.030;2023-05-16T04:43:23;4.4;;;2.4;;
15498;SDS011;7851;52.260;6.030;2023-05-16T04:44:23;7.5;;;2.3;;
15498;SDS011;7851;52.260;6.030;2023-05-16T04:45:23;6.8;;;2.5;;
15498;SDS011;7851;52.260;6.030;2023-05-16T04:46:23;7.5;;;1.9;;
15498;SDS011;7851;52.260;6.030;2023-05-16T04:47:23;5.9;;;2.2;;
15498;SDS011;7851;52.260;6.030;2023-05-16T04:48:23;4.2;;;2.4;;
15498;SDS011;7851;52.260;6.030;2023-05-16T04:49:23;5.2;;;2.4;;
15498;SDS011;7851;52.260;6.030;2023-05-16T04:50:23;6.8;;;2.2;;
15498;SDS011;7851;52.260;6.030;2023-05-16T04:51:23;5.6;;;2.7;;
15498;SDS011;7851;52.260;6.030;2023-05-16T04:52:23;6.2;;;2.6;;
15498;SDS011;7851;52.260;6.030;2023-05-16T04:53:23;7.8;;;2.7;;
15498;SDS011;7851;52.260;6.030;2023-05-16T04:54:23;8.8;;;2.7;;
15498;SDS011;7851;52.260;6.030;2023-05-16T04:55:23;5.8;;;2.4;;
15498;SDS011;7851;52.260;6.030;2023-05-16T04:56:23;7.6;;;2.5;;
15498;SDS011;7851;52.260;6.030;2023-05-16T04:57:23;7.8;;;2.4;;
15498;SDS011;7851;52.260;6.030;2023-05-16T04:58:23;6.5;;;2.5;;
15498;SDS011;7851;52.260;6.030;2023-05-16T04:59:23;5.3;;;2.3;;
15498;SDS011;7851;52.260;6.030;2023-05-16T05:00:24;4.8;;;2.4;;
15498;SDS011;7851;52.260;6.030;2023-05-16T05:01:23;7.7;;;2.3;;
15498;SDS011;7851;52.260;6.030;2023-05-16T05:02:23;6.3;;;2.5;;
15498;SDS011;7851;52.260;6.030;2023-05-16T05:03:23;10.7;;;3;;
15498;SDS011;7851;52.260;6.030;2023-05-16T05:04:23;5.2;;;2.6;;
15498;SDS011;7851;52.260;6.030;2023-05-16T05:05:23;12.3;;;3;;
15498;SDS011;7851;52.260;6.030;2023-05-16T05:06:23;7.9;;;2.6;;
15498;SDS011;7851;52.260;6.030;2023-05-16T05:07:23;6.5;;;2.6;;
15498;SDS011;7851;52.260;6.030;2023-05-16T05:08:23;6.9;;;2.5;;
15498;SDS011;7851;52.260;6.030;2023-05-16T05:09:23;8.7;;;4.1;;
15498;SDS011;7851;52.260;6.030;2023-05-16T05:10:23;4.9;;;4.1;;
15498;SDS011;7851;52.260;6.030;2023-05-16T05:11:23;11;;;4.7;;
15498;SDS011;7851;52.260;6.030;2023-05-16T05:12:23;6;;;4.8;;
15498;SDS011;7851;52.260;6.030;2023-05-16T05:17:23;7.9;;;5.1;;
15498;SDS011;7851;52.260;6.030;2023-05-16T05:18:23;9.1;;;5.2;;
15498;SDS011;7851;52.260;6.030;2023-05-16T05:19:23;8.6;;;5.5;;
15498;SDS011;7851;52.260;6.030;2023-05-16T05:20:23;8.8;;;5.8;;
15498;SDS011;7851;52.260;6.030;2023-05-16T05:21:23;8.7;;;5.7;;
15498;SDS011;7851;52.260;6.030;2023-05-16T05:22:23;9.5;;;5.2;;
15498;SDS011;7851;52.260;6.030;2023-05-16T05:23:23;10.1;;;4.5;;
15498;SDS011;7851;52.260;6.030;2023-05-16T05:24:23;7.5;;;4.2;;
15498;SDS011;7851;52.260;6.030;2023-05-16T05:25:23;8.7;;;4.8;;
15498;SDS011;7851;52.260;6.030;2023-05-16T05:26:23;6.5;;;4.4;;
15498;SDS011;7851;52.260;6.030;2023-05-16T05:27:23;6.8;;;4.2;;
15498;SDS011;7851;52.260;6.030;2023-05-16T05:28:23;9.3;;;4.5;;
15498;SDS011;7851;52.260;6.030;2023-05-16T05:29:23;11.3;;;4.8;;
15498;SDS011;7851;52.260;6.030;2023-05-16T05:30:23;11.3;;;4.7;;
15498;SDS011;7851;52.260;6.030;2023-05-16T05:31:23;6.7;;;4.4;;
15498;SDS011;7851;52.260;6.030;2023-05-16T05:32:23;9.2;;;4.9;;
15498;SDS011;7851;52.260;6.030;2023-05-16T05:33:25;6.3;;;4.8;;
15498;SDS011;7851;52.260;6.030;2023-05-16T05:34:23;4.9;;;4.4;;
15498;SDS011;7851;52.260;6.030;2023-05-16T05:35:23;10.3;;;5.1;;
15498;SDS011;7851;52.260;6.030;2023-05-16T05:36:23;5.6;;;4.6;;
15498;SDS011;7851;52.260;6.030;2023-05-16T05:37:24;5.9;;;4.8;;
15498;SDS011;7851;52.260;6.030;2023-05-16T05:38:23;8.5;;;5;;
15498;SDS011;7851;52.260;6.030;2023-05-16T05:39:23;8;;;4.8;;
15498;SDS011;7851;52.260;6.030;2023-05-16T05:40:23;6.4;;;4.9;;
15498;SDS011;7851;52.260;6.030;2023-05-16T05:41:23;6.1;;;4.8;;
15498;SDS011;7851;52.260;6.030;2023-05-16T05:42:23;7.2;;;4.7;;
15498;SDS011;7851;52.260;6.030;2023-05-16T05:43:23;8.3;;;5.3;;
15498;SDS011;7851;52.260;6.030;2023-05-16T05:44:23;8;;;4.8;;
15498;SDS011;7851;52.260;6.030;2023-05-16T05:45:23;13;;;5;;
15498;SDS011;7851;52.260;6.030;2023-05-16T05:46:23;10.8;;;5.1;;
15498;SDS011;7851;52.260;6.030;2023-05-16T05:47:23;11.1;;;5.4;;
15498;SDS011;7851;52.260;6.030;2023-05-16T05:48:23;7.8;;;5.6;;
15498;SDS011;7851;52.260;6.030;2023-05-16T05:49:23;10.5;;;5.7;;
15498;SDS011;7851;52.260;6.030;2023-05-16T05:50:23;10;;;5.8;;
15498;SDS011;7851;52.260;6.030;2023-05-16T05:51:23;9.4;;;5.7;;
15498;SDS011;7851;52.260;6.030;2023-05-16T05:52:23;7;;;5.5;;
15498;SDS011;7851;52.260;6.030;2023-05-16T05:53:23;5.9;;;5.3;;
15498;SDS011;7851;52.260;6.030;2023-05-16T05:54:23;8.8;;;5.8;;
15498;SDS011;7851;52.260;6.030;2023-05-16T05:55:23;11.8;;;5.5;;
15498;SDS011;7851;52.260;6.030;2023-05-16T05:56:23;6.1;;;5.5;;
15498;SDS011;7851;52.260;6.030;2023-05-16T05:57:23;6.7;;;5.6;;
15498;SDS011;7851;52.260;6.030;2023-05-16T05:58:23;7.2;;;5.6;;
15498;SDS011;7851;52.260;6.030;2023-05-16T05:59:23;10.2;;;5.2;;
15498;SDS011;7851;52.260;6.030;2023-05-16T06:00:23;5.8;;;5.2;;
15498;SDS011;7851;52.260;6.030;2023-05-16T06:01:23;6.1;;;5.3;;
15498;SDS011;7851;52.260;6.030;2023-05-16T06:02:23;10.7;;;6;;
15498;SDS011;7851;52.260;6.030;2023-05-16T06:03:23;8.4;;;6.1;;
15498;SDS011;7851;52.260;6.030;2023-05-16T06:04:23;8.4;;;6.9;;
15498;SDS011;7851;52.260;6.030;2023-05-16T06:05:23;9.7;;;6.1;;
15498;SDS011;7851;52.260;6.030;2023-05-16T06:06:23;10.4;;;5.9;;
15498;SDS011;7851;52.260;6.030;2023-05-16T06:07:23;8.8;;;6.1;;
15498;SDS011;7851;52.260;6.030;2023-05-16T06:08:23;9.8;;;5.9;;
15498;SDS011;7851;52.260;6.030;2023-05-16T06:09:23;8.5;;;6.7;;
15498;SDS011;7851;52.260;6.030;2023-05-16T06:10:23;8.2;;;6.2;;
15498;SDS011;7851;52.260;6.030;2023-05-16T06:11:23;7.9;;;5.8;;
15498;SDS011;7851;52.260;6.030;2023-05-16T06:12:23;12.2;;;6.3;;
15498;SDS011;7851;52.260;6.030;2023-05-16T06:13:23;8.1;;;6.6;;
15498;SDS011;7851;52.260;6.030;2023-05-16T06:14:23;7.2;;;6.2;;
15498;SDS011;7851;52.260;6.030;2023-05-16T06:15:23;11;;;6;;
15498;SDS011;7851;52.260;6.030;2023-05-16T06:16:23;6.9;;;6.2;;
15498;SDS011;7851;52.260;6.030;2023-05-16T06:17:23;6.8;;;6.2;;
15498;SDS011;7851;52.260;6.030;2023-05-16T06:18:23;9.4;;;6.1;;
15498;SDS011;7851;52.260;6.030;2023-05-16T06:19:23;6;;;5.4;;
15498;SDS011;7851;52.260;6.030;2023-05-16T06:20:23;5.9;;;5.3;;
15498;SDS011;7851;52.260;6.030;2023-05-16T06:21:23;6.3;;;5.8;;
15498;SDS011;7851;52.260;6.030;2023-05-16T06:22:23;6.8;;;6.2;;
15498;SDS011;7851;52.260;6.030;2023-05-16T06:23:23;7.3;;;5.9;;